Terminal Aerodrome Forecast
Issued by NWS

Home | Current Version | Previous Version | Text Only | Print | Product List | Glossary On
Versions: 1 2 3 4 5 6 7 8 9 10 11 12
000
FTUS46 KHNX 292300
TAFBFL
TAF
KBFL 292320Z 3000/3024 31009KT P6SM OVC200
     FM300300 34005KT P6SM BKN200
     FM301200 13004KT P6SM SCT200
     FM302100 31008KT P6SM SCT200=

USA.gov is the U.S. government's official web portal to all federal, state and local government web resources and services.